createdAt,value
2019-03-01T00:01:30.202Z,15.23
2019-03-01T00:04:16.202Z,17.07
2019-03-01T00:07:12.427Z,17.42
2019-03-01T00:09:52.391Z,16.45
2019-03-01T00:13:06.490Z,17.40
2019-03-01T00:15:52.054Z,16.45
2019-03-01T00:18:59.458Z,17.12
2019-03-01T00:21:58.188Z,16.85
2019-03-01T00:24:48.419Z,18.27
2019-03-01T00:27:43.696Z,16.77
2019-03-01T00:30:49.495Z,17.85
2019-03-01T00:33:41.285Z,15.15
2019-03-01T00:36:47.367Z,15.45
2019-03-01T00:40:02.654Z,14.63
2019-03-01T00:42:44.755Z,15.03
2019-03-01T00:45:12.936Z,14.35
2019-03-01T00:47:41.264Z,15.00
2019-03-01T00:50:09.849Z,13.35
2019-03-01T00:52:38.070Z,13.48
2019-03-01T00:55:06.464Z,13.40
2019-03-01T00:57:34.810Z,13.30
2019-03-01T01:00:04.264Z,12.68
2019-03-01T01:02:32.476Z,11.90
2019-03-01T01:05:00.613Z,12.88
2019-03-01T01:07:28.960Z,12.58
2019-03-01T01:09:57.218Z,12.20
2019-03-01T01:12:25.499Z,11.48
2019-03-01T01:14:53.872Z,13.13
2019-03-01T01:17:22.210Z,12.05
2019-03-01T01:19:50.391Z,11.53
2019-03-01T01:22:18.515Z,12.30
2019-03-01T01:24:46.838Z,11.50
2019-03-01T01:27:15.228Z,11.30
2019-03-01T01:29:43.316Z,11.80
2019-03-01T01:32:11.534Z,10.68
2019-03-01T01:34:39.614Z,10.85
2019-03-01T01:37:07.627Z,11.18
2019-03-01T01:39:35.690Z,11.20
2019-03-01T01:42:04.523Z,10.03
2019-03-01T01:44:32.664Z,10.95
2019-03-01T01:47:00.878Z,11.65
2019-03-01T01:49:30.057Z,11.20
2019-03-01T01:51:58.215Z,11.30
2019-03-01T01:54:26.527Z,12.00
2019-03-01T01:56:54.767Z,13.03
2019-03-01T01:59:22.842Z,13.13
2019-03-01T02:01:51.210Z,13.85
2019-03-01T02:04:19.494Z,12.70
2019-03-01T02:06:47.699Z,13.68
2019-03-01T02:09:24.380Z,13.40
2019-03-01T02:11:53.135Z,12.60
2019-03-01T02:14:21.336Z,12.30
2019-03-01T02:16:49.549Z,13.10
2019-03-01T02:19:17.802Z,13.05
2019-03-01T02:21:46.026Z,13.45
2019-03-01T02:24:14.646Z,13.00
2019-03-01T02:26:42.864Z,13.00
2019-03-01T02:29:11.155Z,13.18
2019-03-01T02:31:46.672Z,12.47
2019-03-01T02:34:13.905Z,12.70
2019-03-01T02:36:41.108Z,12.45
2019-03-01T02:39:08.512Z,13.90
2019-03-01T02:41:35.672Z,14.18
2019-03-01T02:44:02.879Z,14.00
2019-03-01T02:46:31.336Z,13.50
2019-03-01T02:49:12.756Z,14.15
2019-03-01T02:51:39.724Z,12.10
2019-03-01T02:54:06.962Z,14.38
2019-03-01T02:56:34.135Z,14.00
2019-03-01T02:59:01.122Z,12.78
2019-03-01T03:01:28.697Z,13.78
2019-03-01T03:03:56.103Z,12.65
2019-03-01T03:06:34.867Z,12.93
2019-03-01T03:09:02.868Z,12.82
2019-03-01T03:11:30.086Z,12.58
2019-03-01T03:13:58.159Z,12.60
2019-03-01T03:16:26.500Z,13.25
2019-03-01T03:18:54.782Z,12.53
2019-03-01T03:21:23.054Z,12.93
2019-03-01T03:23:51.418Z,13.10
2019-03-01T03:26:19.701Z,13.35
2019-03-01T03:28:47.918Z,12.63
2019-03-01T03:31:16.361Z,14.60
2019-03-01T03:33:43.925Z,14.07
2019-03-01T03:36:12.422Z,14.07
2019-03-01T03:38:39.486Z,14.85
2019-03-01T03:41:07.932Z,14.15
2019-03-01T03:43:36.556Z,15.23
2019-03-01T03:46:03.848Z,14.63
2019-03-01T03:48:32.216Z,14.35
2019-03-01T03:51:00.403Z,14.95
2019-03-01T03:53:28.847Z,14.45
2019-03-01T03:55:57.075Z,14.38
2019-03-01T03:58:25.548Z,15.38
2019-03-01T04:00:54.000Z,16.30
2019-03-01T04:03:21.296Z,14.70
2019-03-01T04:05:49.583Z,16.10
2019-03-01T04:08:17.771Z,14.85
2019-03-01T04:10:46.036Z,15.32
2019-03-01T04:13:16.529Z,15.43
2019-03-01T04:15:44.209Z,16.42
2019-03-01T04:18:12.646Z,16.07
2019-03-01T04:20:40.935Z,16.45
2019-03-01T04:23:09.149Z,17.30
2019-03-01T04:25:37.367Z,16.67
2019-03-01T04:28:05.705Z,16.77
2019-03-01T04:30:34.200Z,16.37
2019-03-01T04:33:01.483Z,15.68
2019-03-01T04:35:29.741Z,16.10
2019-03-01T04:37:57.936Z,14.87
2019-03-01T04:40:26.011Z,14.98
2019-03-01T04:42:54.420Z,15.13
2019-03-01T04:45:21.626Z,14.60
2019-03-01T04:47:49.882Z,14.15
2019-03-01T04:50:18.119Z,13.68
2019-03-01T04:52:46.495Z,14.80
2019-03-01T04:55:17.320Z,14.68
2019-03-01T04:57:45.491Z,14.30
2019-03-01T05:00:18.487Z,17.77
2019-03-01T05:02:45.866Z,15.50
2019-03-01T05:05:14.017Z,14.45
2019-03-01T05:07:42.363Z,13.85
2019-03-01T05:10:10.492Z,14.95
2019-03-01T05:12:39.031Z,15.72
2019-03-01T05:15:09.230Z,16.50
2019-03-01T05:17:36.434Z,15.80
2019-03-01T05:20:04.705Z,16.95
2019-03-01T05:22:33.174Z,15.80
2019-03-01T05:25:02.020Z,16.35
2019-03-01T05:27:29.302Z,18.25
2019-03-01T05:29:58.052Z,18.82
2019-03-01T05:32:26.755Z,18.45
2019-03-01T05:34:55.879Z,18.75
2019-03-01T05:37:23.166Z,21.15
2019-03-01T05:39:52.239Z,18.20
2019-03-01T05:42:20.867Z,19.40
2019-03-01T05:44:49.701Z,20.12
2019-03-01T05:47:18.444Z,18.40
2019-03-01T05:49:47.347Z,19.05
2019-03-01T05:52:15.865Z,20.20
2019-03-01T05:54:44.067Z,19.48
2019-03-01T05:57:12.884Z,18.23
2019-03-01T05:59:41.765Z,20.35
2019-03-01T06:02:54.716Z,20.23
2019-03-01T06:05:29.038Z,18.50
2019-03-01T06:08:31.219Z,18.52
2019-03-01T06:11:11.154Z,19.80
2019-03-01T06:14:06.868Z,20.48
2019-03-01T06:16:59.843Z,20.10
2019-03-01T06:19:58.994Z,19.10
2019-03-01T06:22:55.575Z,20.72
2019-03-01T06:25:57.858Z,22.55
2019-03-01T06:29:06.151Z,21.45
2019-03-01T06:32:15.093Z,22.93
2019-03-01T06:35:11.463Z,21.82
2019-03-01T06:38:08.545Z,22.95
2019-03-01T06:41:22.570Z,23.25
2019-03-01T06:44:38.814Z,23.38
2019-03-01T06:47:40.675Z,23.25
2019-03-01T06:50:15.112Z,24.80
2019-03-01T06:52:43.340Z,22.60
2019-03-01T06:55:34.859Z,23.75
2019-03-01T06:58:03.492Z,24.57
2019-03-01T07:00:35.556Z,25.17
2019-03-01T07:03:04.113Z,24.07
2019-03-01T07:05:32.583Z,24.10
2019-03-01T07:08:00.907Z,23.30
2019-03-01T07:10:29.333Z,22.80
2019-03-01T07:12:57.429Z,21.82
2019-03-01T07:15:25.867Z,23.77
2019-03-01T07:17:57.624Z,27.20
2019-03-01T07:20:25.030Z,26.80
2019-03-01T07:22:53.474Z,26.97
2019-03-01T07:25:21.730Z,27.90
2019-03-01T07:27:50.419Z,27.50
2019-03-01T07:30:18.584Z,27.70
2019-03-01T07:32:45.751Z,26.25
2019-03-01T07:35:14.203Z,27.95
2019-03-01T07:37:42.658Z,28.20
2019-03-01T07:40:11.550Z,27.95
2019-03-01T07:42:40.338Z,28.02
2019-03-01T07:45:08.289Z,29.15
2019-03-01T07:47:36.809Z,30.35
2019-03-01T07:50:05.631Z,28.92
2019-03-01T07:52:34.018Z,29.85
2019-03-01T07:55:02.643Z,32.90
2019-03-01T07:57:31.615Z,32.80
2019-03-01T08:00:01.036Z,34.43
2019-03-01T08:02:29.458Z,35.50
2019-03-01T08:05:00.011Z,37.30
2019-03-01T08:07:28.515Z,36.75
2019-03-01T08:09:56.943Z,38.38
2019-03-01T08:12:25.011Z,38.75
2019-03-01T08:14:53.754Z,39.85
2019-03-01T08:17:21.131Z,38.30
2019-03-01T08:19:49.142Z,38.50
2019-03-01T08:22:20.874Z,40.55
2019-03-01T08:24:47.515Z,40.98
2019-03-01T08:27:15.853Z,41.42
2019-03-01T08:29:44.227Z,42.33
2019-03-01T08:32:12.597Z,41.40
2019-03-01T08:34:40.819Z,40.88
2019-03-01T08:37:08.927Z,43.35
2019-03-01T08:39:39.747Z,43.50
2019-03-01T08:42:07.510Z,42.85
2019-03-01T08:44:36.586Z,45.58
2019-03-01T08:47:05.357Z,43.52
2019-03-01T08:49:33.825Z,45.80
2019-03-01T08:52:02.412Z,42.10
2019-03-01T08:54:31.240Z,45.38
2019-03-01T08:57:00.614Z,46.20
2019-03-01T08:59:28.591Z,49.27
2019-03-01T09:01:56.912Z,49.03
2019-03-01T09:04:25.354Z,50.63
2019-03-01T09:06:53.862Z,51.80
2019-03-01T09:09:22.703Z,53.83
2019-03-01T09:11:51.401Z,53.48
2019-03-01T09:14:18.940Z,56.13
2019-03-01T09:16:47.537Z,55.35
2019-03-01T09:19:15.750Z,56.68
2019-03-01T09:21:49.935Z,57.83
2019-03-01T09:24:15.136Z,63.13
2019-03-01T09:26:43.926Z,58.73
2019-03-01T09:29:12.959Z,64.72
2019-03-01T09:31:42.375Z,63.42
2019-03-01T09:34:11.018Z,64.72
2019-03-01T09:36:45.442Z,70.10
2019-03-01T09:39:14.415Z,68.85
2019-03-01T09:41:42.278Z,66.65
2019-03-01T09:44:09.744Z,64.30
2019-03-01T09:46:38.327Z,65.08
2019-03-01T09:49:06.407Z,67.30
2019-03-01T09:51:35.303Z,63.30
2019-03-01T09:54:06.527Z,62.08
2019-03-01T09:56:33.795Z,60.60
2019-03-01T09:59:02.128Z,56.60
2019-03-01T10:01:30.394Z,54.85
2019-03-01T10:03:59.538Z,53.60
2019-03-01T10:06:37.624Z,50.40
2019-03-01T10:08:58.849Z,51.23
2019-03-01T10:11:28.259Z,49.40
2019-03-01T10:13:55.810Z,49.73
2019-03-01T10:16:23.155Z,45.05
2019-03-01T10:18:51.690Z,42.78
2019-03-01T10:21:20.462Z,45.85
2019-03-01T10:23:49.636Z,45.67
2019-03-01T10:26:18.531Z,44.00
2019-03-01T10:28:45.768Z,45.88
2019-03-01T10:31:14.792Z,43.30
2019-03-01T10:33:43.662Z,43.50
2019-03-01T10:36:12.423Z,44.15
2019-03-01T10:38:40.028Z,44.50
2019-03-01T10:41:08.502Z,43.05
2019-03-01T10:43:36.719Z,42.90
2019-03-01T10:46:05.306Z,45.38
2019-03-01T10:48:34.161Z,43.73
2019-03-01T10:51:01.933Z,47.13
2019-03-01T10:53:30.203Z,45.63
2019-03-01T10:55:58.420Z,46.45
2019-03-01T10:58:26.842Z,47.13
2019-03-01T11:00:55.463Z,45.92
2019-03-01T11:03:23.742Z,48.65
2019-03-01T11:05:52.976Z,47.08
2019-03-01T11:08:21.519Z,44.03
2019-03-01T11:10:50.073Z,42.00
2019-03-01T11:13:17.375Z,38.00
2019-03-01T11:15:46.212Z,36.55
2019-03-01T11:18:14.596Z,35.68
2019-03-01T11:20:43.156Z,34.98
2019-03-01T11:23:13.808Z,34.03
2019-03-01T11:25:43.013Z,35.00
2019-03-01T11:28:11.237Z,32.88
2019-03-01T11:30:40.484Z,35.20
2019-03-01T11:33:09.071Z,29.80
2019-03-01T11:35:37.648Z,30.75
2019-03-01T11:38:06.062Z,29.80
2019-03-01T11:40:35.039Z,29.50
2019-03-01T11:43:04.114Z,29.25
2019-03-01T11:45:33.239Z,30.15
2019-03-01T11:48:00.836Z,31.05
2019-03-01T11:50:29.186Z,31.42
2019-03-01T11:52:57.406Z,30.82
2019-03-01T11:55:25.954Z,30.17
2019-03-01T11:57:54.389Z,29.25
2019-03-01T12:00:22.841Z,30.35
2019-03-01T12:02:51.442Z,29.42
2019-03-01T12:05:20.282Z,31.60
2019-03-01T12:07:49.241Z,30.43
2019-03-01T12:10:21.181Z,28.05
2019-03-01T12:12:49.748Z,29.40
2019-03-01T12:15:18.462Z,31.40
2019-03-01T12:17:47.058Z,32.78
2019-03-01T12:20:16.048Z,32.42
2019-03-01T12:22:44.513Z,32.42
2019-03-01T12:25:13.111Z,33.38
2019-03-01T12:27:41.658Z,32.53
2019-03-01T12:30:13.389Z,32.53
2019-03-01T12:32:40.810Z,31.45
2019-03-01T12:35:09.393Z,31.80
2019-03-01T12:37:36.715Z,24.55
2019-03-01T12:40:06.451Z,22.67
2019-03-01T12:42:34.623Z,22.22
2019-03-01T12:45:02.969Z,19.42
2019-03-01T12:47:31.188Z,18.87
2019-03-01T12:50:00.090Z,18.77
2019-03-01T12:52:28.647Z,17.17
2019-03-01T12:54:57.361Z,18.23
2019-03-01T12:57:24.589Z,16.17
2019-03-01T12:59:52.987Z,16.48
2019-03-01T13:02:21.179Z,16.32
2019-03-01T13:04:49.892Z,14.45
2019-03-01T13:07:19.763Z,14.50
2019-03-01T13:09:47.839Z,14.80
2019-03-01T13:12:16.286Z,14.47
2019-03-01T13:14:43.565Z,12.73
2019-03-01T13:17:11.728Z,13.20
2019-03-01T13:19:39.911Z,13.88
2019-03-01T13:22:08.118Z,13.48
2019-03-01T13:24:36.335Z,15.90
2019-03-01T13:27:04.612Z,16.10
2019-03-01T13:29:32.953Z,17.48
2019-03-01T13:32:00.006Z,16.17
2019-03-01T13:34:28.172Z,17.00
2019-03-01T13:36:56.462Z,17.05
2019-03-01T13:39:24.878Z,16.70
2019-03-01T13:41:53.069Z,15.58
2019-03-01T13:44:21.282Z,15.25
2019-03-01T13:46:49.566Z,15.43
2019-03-01T13:49:17.795Z,14.58
2019-03-01T13:51:49.496Z,13.78
2019-03-01T13:54:15.787Z,13.90
2019-03-01T13:56:43.390Z,13.60
2019-03-01T13:59:11.466Z,15.13
2019-03-01T14:01:40.106Z,12.13
2019-03-01T14:04:09.521Z,14.50
2019-03-01T14:06:38.113Z,13.88
2019-03-01T14:09:11.683Z,13.13
2019-03-01T14:11:40.152Z,13.78
2019-03-01T14:14:09.164Z,13.80
2019-03-01T14:16:36.713Z,13.48
2019-03-01T14:19:05.197Z,14.20
2019-03-01T14:21:33.925Z,13.50
2019-03-01T14:24:02.472Z,13.25
2019-03-01T14:26:31.144Z,14.55
2019-03-01T14:28:59.638Z,14.87
2019-03-01T14:31:28.147Z,14.20
2019-03-01T14:33:57.107Z,15.78
2019-03-01T14:36:25.531Z,13.22
2019-03-01T14:38:54.176Z,15.65
2019-03-01T14:41:22.742Z,14.20
2019-03-01T14:43:50.419Z,13.65
2019-03-01T14:46:20.720Z,13.93
2019-03-01T14:48:48.902Z,13.62
2019-03-01T14:51:18.006Z,14.07
2019-03-01T14:53:45.873Z,13.05
2019-03-01T14:56:21.381Z,14.95
2019-03-01T14:58:58.874Z,14.40
2019-03-01T15:02:14.714Z,13.53
2019-03-01T15:04:42.901Z,14.18
2019-03-01T15:07:11.368Z,14.98
2019-03-01T15:09:39.942Z,14.93
2019-03-01T15:12:08.529Z,14.23
2019-03-01T15:14:37.110Z,14.90
2019-03-01T15:17:05.798Z,16.85
2019-03-01T15:19:33.977Z,15.30
2019-03-01T15:22:03.860Z,15.88
2019-03-01T15:24:33.273Z,15.30
2019-03-01T15:27:04.252Z,15.85
2019-03-01T15:29:32.181Z,16.20
2019-03-01T15:32:00.123Z,17.70
2019-03-01T15:34:27.279Z,16.00
2019-03-01T15:36:56.810Z,16.45
2019-03-01T15:39:25.744Z,15.48
2019-03-01T15:41:54.210Z,14.85
2019-03-01T15:44:25.757Z,14.90
2019-03-01T15:46:53.226Z,16.45
2019-03-01T15:49:23.737Z,15.88
2019-03-01T15:51:52.360Z,17.15
2019-03-01T15:54:20.193Z,16.50
2019-03-01T15:56:48.742Z,15.70
2019-03-01T15:59:16.926Z,16.67
2019-03-01T16:01:47.312Z,15.28
2019-03-01T16:04:15.623Z,17.70
2019-03-01T16:06:44.448Z,16.60
2019-03-01T16:09:16.096Z,15.50
2019-03-01T16:11:43.925Z,16.12
2019-03-01T16:14:12.774Z,16.40
2019-03-01T16:16:41.114Z,16.05
2019-03-01T16:19:13.842Z,15.35
2019-03-01T16:21:43.118Z,15.48
2019-03-01T16:24:11.615Z,14.95
2019-03-01T16:26:40.477Z,15.48
2019-03-01T16:29:08.093Z,16.57
2019-03-01T16:31:36.847Z,15.40
2019-03-01T16:34:05.338Z,16.12
2019-03-01T16:36:37.995Z,17.80
2019-03-01T16:39:10.854Z,16.27
2019-03-01T16:41:42.806Z,15.68
2019-03-01T16:44:11.210Z,16.05
2019-03-01T16:46:38.961Z,15.53
2019-03-01T16:49:06.842Z,14.07
2019-03-01T16:51:35.386Z,14.15
2019-03-01T16:54:02.882Z,15.53
2019-03-01T16:56:34.543Z,14.28
2019-03-01T16:59:03.736Z,15.75
2019-03-01T17:01:30.813Z,13.58
2019-03-01T17:03:59.158Z,12.05
2019-03-01T17:06:27.366Z,12.33
2019-03-01T17:08:55.673Z,10.58
2019-03-01T17:11:24.020Z,11.78
2019-03-01T17:13:52.842Z,10.10
2019-03-01T17:16:23.813Z,10.88
2019-03-01T17:18:52.478Z,10.65
2019-03-01T17:21:20.791Z,10.50
2019-03-01T17:23:48.965Z,10.18
2019-03-01T17:26:17.635Z,10.63
2019-03-01T17:28:45.885Z,8.75
2019-03-01T17:31:14.542Z,10.20
2019-03-01T17:33:45.235Z,10.08
2019-03-01T17:36:12.892Z,8.78
2019-03-01T17:38:45.884Z,10.25
2019-03-01T17:41:11.808Z,8.65
2019-03-01T17:43:40.896Z,9.43
2019-03-01T17:46:08.118Z,10.40
2019-03-01T17:48:36.233Z,8.83
2019-03-01T17:51:05.130Z,10.90
2019-03-01T17:53:34.523Z,10.18
2019-03-01T17:56:02.269Z,10.80
2019-03-01T17:58:30.593Z,9.68
2019-03-01T18:01:02.762Z,9.85
2019-03-01T18:03:30.429Z,8.70
2019-03-01T18:05:59.070Z,8.03
2019-03-01T18:08:27.064Z,8.78
2019-03-01T18:10:55.601Z,8.85
2019-03-01T18:13:24.263Z,8.58
2019-03-01T18:15:52.593Z,6.83
2019-03-01T18:18:24.782Z,6.05
2019-03-01T18:20:53.625Z,7.40
2019-03-01T18:23:22.430Z,7.20
2019-03-01T18:25:51.123Z,7.10
2019-03-01T18:28:19.106Z,6.67
2019-03-01T18:30:47.326Z,7.42
2019-03-01T18:33:16.882Z,6.87
2019-03-01T18:35:48.836Z,6.22
2019-03-01T18:38:16.501Z,6.22
2019-03-01T18:40:43.909Z,8.30
2019-03-01T18:43:13.812Z,7.30
2019-03-01T18:45:43.138Z,6.42
2019-03-01T18:48:16.129Z,7.72
2019-03-01T18:50:46.837Z,7.03
2019-03-01T18:53:14.256Z,8.00
2019-03-01T18:55:41.864Z,7.37
2019-03-01T18:58:10.569Z,7.72
2019-03-01T19:00:39.734Z,8.20
2019-03-01T19:03:07.235Z,7.92
2019-03-01T19:05:36.767Z,8.30
2019-03-01T19:08:06.107Z,9.20
2019-03-01T19:10:35.098Z,8.60
2019-03-01T19:13:03.895Z,8.45
2019-03-01T19:15:33.171Z,8.70
2019-03-01T19:18:01.732Z,7.92
2019-03-01T19:20:30.730Z,6.58
2019-03-01T19:22:58.734Z,6.12
2019-03-01T19:25:27.227Z,5.78
2019-03-01T19:27:55.707Z,5.95
2019-03-01T19:30:24.466Z,6.55
2019-03-01T19:32:52.966Z,6.00
2019-03-01T19:35:21.266Z,6.30
2019-03-01T19:37:50.803Z,6.25
2019-03-01T19:40:22.362Z,7.30
2019-03-01T19:42:49.613Z,7.70
2019-03-01T19:45:17.391Z,6.80
2019-03-01T19:47:44.695Z,7.83
2019-03-01T19:50:15.330Z,7.33
2019-03-01T19:52:47.052Z,7.10
2019-03-01T19:55:14.266Z,7.78
2019-03-01T19:57:42.637Z,8.83
2019-03-01T20:00:17.193Z,7.90
2019-03-01T20:02:46.431Z,9.50
2019-03-01T20:05:15.485Z,9.73
2019-03-01T20:07:44.787Z,9.33
2019-03-01T20:10:15.900Z,10.15
2019-03-01T20:12:44.702Z,9.13
2019-03-01T20:15:20.429Z,10.50
2019-03-01T20:17:48.112Z,10.70
2019-03-01T20:20:16.763Z,10.78
2019-03-01T20:22:45.664Z,11.22
2019-03-01T20:25:16.199Z,10.68
2019-03-01T20:27:45.571Z,10.30
2019-03-01T20:30:17.921Z,11.40
2019-03-01T20:32:47.483Z,10.45
2019-03-01T20:35:16.700Z,11.25
2019-03-01T20:37:45.521Z,10.50
2019-03-01T20:40:14.372Z,11.78
2019-03-01T20:42:42.547Z,10.50
2019-03-01T20:45:13.904Z,12.07
2019-03-01T20:47:44.837Z,11.55
2019-03-01T20:50:15.682Z,12.20
2019-03-01T20:52:44.531Z,12.80
2019-03-01T20:55:13.479Z,12.95
2019-03-01T20:57:40.792Z,12.25
2019-03-01T21:00:11.863Z,12.25
2019-03-01T21:02:40.401Z,12.25
2019-03-01T21:05:09.740Z,11.65
2019-03-01T21:07:38.419Z,13.48
2019-03-01T21:10:16.035Z,12.93
2019-03-01T21:12:44.167Z,14.18
2019-03-01T21:15:11.874Z,13.13
2019-03-01T21:17:39.310Z,13.90
2019-03-01T21:20:08.559Z,14.63
2019-03-01T21:22:39.703Z,13.35
2019-03-01T21:25:08.567Z,13.53
2019-03-01T21:27:37.277Z,15.18
2019-03-01T21:30:10.669Z,14.28
2019-03-01T21:32:39.384Z,14.98
2019-03-01T21:35:10.443Z,15.00
2019-03-01T21:37:39.424Z,14.75
2019-03-01T21:40:08.743Z,14.75
2019-03-01T21:42:37.199Z,14.93
2019-03-01T21:45:07.234Z,16.75
2019-03-01T21:47:34.815Z,16.30
2019-03-01T21:50:04.278Z,17.70
2019-03-01T21:52:33.623Z,17.60
2019-03-01T21:55:02.446Z,17.32
2019-03-01T21:57:31.160Z,17.42
2019-03-01T22:00:00.723Z,18.30
2019-03-01T22:02:29.026Z,18.17
2019-03-01T22:04:57.450Z,17.80
2019-03-01T22:07:26.050Z,17.12
2019-03-01T22:09:56.735Z,18.40
2019-03-01T22:12:25.663Z,16.90
2019-03-01T22:14:54.748Z,17.23
2019-03-01T22:17:23.393Z,15.53
2019-03-01T22:19:52.230Z,16.67
2019-03-01T22:22:21.259Z,18.02
2019-03-01T22:24:50.365Z,16.65
2019-03-01T22:27:21.589Z,18.30
2019-03-01T22:29:49.595Z,17.50
2019-03-01T22:32:17.510Z,17.60
2019-03-01T22:34:46.199Z,17.42
2019-03-01T22:37:15.207Z,17.70
2019-03-01T22:39:43.389Z,16.23
2019-03-01T22:42:14.318Z,15.28
2019-03-01T22:44:43.791Z,15.30
2019-03-01T22:47:12.517Z,13.00
2019-03-01T22:49:41.282Z,12.95
2019-03-01T22:52:09.522Z,10.80
2019-03-01T22:54:37.795Z,11.97
2019-03-01T22:57:06.547Z,11.05
2019-03-01T22:59:35.518Z,11.75
2019-03-01T23:02:08.056Z,10.75
2019-03-01T23:04:36.251Z,11.20
2019-03-01T23:07:04.435Z,8.90
2019-03-01T23:09:33.742Z,9.00
2019-03-01T23:12:04.684Z,10.00
2019-03-01T23:14:32.647Z,9.90
2019-03-01T23:17:01.254Z,9.48
2019-03-01T23:19:29.776Z,9.35
2019-03-01T23:21:57.468Z,8.68
2019-03-01T23:24:26.390Z,8.68
2019-03-01T23:26:56.779Z,8.70
2019-03-01T23:29:25.598Z,8.08
2019-03-01T23:31:54.138Z,7.80
2019-03-01T23:34:23.058Z,10.00
2019-03-01T23:36:50.815Z,8.90
2019-03-01T23:39:21.622Z,8.60
2019-03-01T23:41:49.394Z,8.53
2019-03-01T23:44:17.679Z,8.08
2019-03-01T23:46:45.194Z,8.10
2019-03-01T23:49:13.529Z,7.30
2019-03-01T23:51:42.488Z,7.97
2019-03-01T23:54:11.987Z,8.05
2019-03-01T23:56:39.325Z,9.25
2019-03-01T23:59:07.499Z,8.40
